Decoded Metar for KSRQ (SARASOTA/BRADENT in FL, USA) (IATA:SRQ) | Meteo·Mobile Aviation Weather
aviador You're here:

KSRQ Decoded Metar

SARASOTA/BRADENT in FL, USA
Report Time2018-08-22 06:53:00
UTC Time2018-08-22 06:57:22
Flight Rules vfr VFR
WindCalm
Visibility9999 m
Phenomena:N/A
Clouds:Few 025 Hf
Expected CloudBase > 800 ft AGL from Temp-Dew spread
CeilingNone
Temp26°C (ISA +11)
Dew Point24°C (89% RH)
QNH1018 hPa
Density Alt1,565 ft
Elevation59 ft
Report Wrong Elevation
Raw Report
METAR KSRQ 220653Z AUTO 00000KT 10SM FEW025 26/24 A3005 RMK AO2
SLP176 T02610244=

Extra information for KSRQ:More info

Metar Taf Metar & Taf Last 4 Metars F.Rules Stats Wind Profile Meteogram Temp Stats Airport Information Weather charts Add Link Nearby VenuesMetar ALERT Operation Metar Decoded Social comments

AIRNAV info for KSRQ